Zeynep — H3UK — position and weather

sailwx.info

Track history (hours):
 
Tides and Currents Weather Stations Pressure Air Temp Water Temp Dewpoint Dewpoint Depression Visibility Wind Speed Wind Dir Waves Ship Positions

Zeynep

Last reported at 2017-Nov-10 16:28 UTC. Time now 2017-Nov-20 06:21 UTC.
Position N 23°02' W 017°08'.
Warning: this ship's position is 9 days out of date.

Length 177 m; draft 10.1 m.

Type: Cargo ship. MMSI: 352854000.

Date/timePositionNaut miles runAvg speedWind from/ knotsBaromVisibWave heightAir tempDewpointWater temp
2017-Nov-10 16:28N 23°02' W 017°08'613.2
2017-Nov-10 15:59N 23°07' W 017°04'613.3
2017-Nov-10 15:30N 23°13' W 017°00'713.2
2017-Nov-10 14:56N 23°19' W 016°55'713.7
2017-Nov-10 14:26N 23°24' W 016°51'613.9
2017-Nov-10 14:01N 23°29' W 016°47'913.7
2017-Nov-10 13:21N 23°36' W 016°41'513.5
2017-Nov-10 13:00N 23°40' W 016°38'713.3
2017-Nov-10 12:30N 23°46' W 016°34'813.3
2017-Nov-10 11:55N 23°52' W 016°30'613.4
2017-Nov-10 11:30N 23°57' W 016°27'713.4
2017-Nov-10 11:00N 24°03' W 016°23'16813.1
2017-Nov-09 22:08N 26°26' W 014°44'4612.5
2017-Nov-09 18:25N 27°05' W 014°17'512.4
2017-Nov-09 18:00N 27°09' W 014°14'712.4
2017-Nov-09 17:29N 27°15' W 014°10'612.6
2017-Nov-09 17:01N 27°20' W 014°07'713.2
2017-Nov-09 16:30N 27°26' W 014°03'713.1
2017-Nov-09 16:00N 27°31' W 013°59'713.2
2017-Nov-09 15:31N 27°37' W 013°55'713.1
2017-Nov-09 15:00N 27°42' W 013°50'712.9
2017-Nov-09 14:30N 27°47' W 013°46'713.0
2017-Nov-09 14:00N 27°53' W 013°42'612.8
2017-Nov-09 13:30N 27°58' W 013°38'612.6
2017-Nov-09 13:00N 28°03' W 013°35'612.4
2017-Nov-09 12:31N 28°09' W 013°31'712.3
2017-Nov-09 11:58N 28°14' W 013°27'612.7
2017-Nov-09 11:30N 28°19' W 013°23'712.9
2017-Nov-09 10:57N 28°25' W 013°19'612.9
2017-Nov-09 10:28N 28°30' W 013°15'612.8
2017-Nov-09 10:00N 28°35' W 013°11'712.5
2017-Nov-09 09:28N 28°41' W 013°07'612.7
2017-Nov-09 08:58N 28°46' W 013°03'612.3
2017-Nov-09 08:30N 28°51' W 012°59'611.6
2017-Nov-09 08:00N 28°56' W 012°56'612.1
2017-Nov-09 07:30N 29°01' W 012°52'612.0
2017-Nov-09 07:00N 29°06' W 012°48'611.9
2017-Nov-09 06:30N 29°11' W 012°45'3111.9
2017-Nov-09 03:56N 29°36' W 012°25'3710.3
2017-Nov-09 00:20N 30°08' W 012°03'412.0
2017-Nov-09 00:00N 30°11' W 012°00'611.9
2017-Nov-08 23:30N 30°16' W 011°57'612.1
2017-Nov-08 22:59N 30°22' W 011°53'511.3
2017-Nov-08 22:30N 30°26' W 011°49'612.2
2017-Nov-08 22:00N 30°31' W 011°45'612.6
2017-Nov-08 21:31N 30°36' W 011°42'612.6
2017-Nov-08 21:00N 30°42' W 011°38'3412.9
2017-Nov-08 18:21N 31°11' W 011°16'34413.0
2017-Nov-07 15:59N 35°21' W 006°35'1113.7
2017-Nov-07 15:10N 35°30' W 006°26'613.6
2017-Nov-07 14:45N 35°34' W 006°21'414.1
2017-Nov-07 14:30N 35°36' W 006°18'714.7
2017-Nov-07 14:00N 35°42' W 006°12'815.0
2017-Nov-07 13:28N 35°47' W 006°05'714.9
2017-Nov-07 12:58N 35°52' W 005°58'613.7
2017-Nov-07 12:30N 35°56' W 005°52'714.9
2017-Nov-07 12:00N 35°58' W 005°43'613.0
2017-Nov-07 11:30N 35°58' W 005°35'611.4
2017-Nov-07 11:00N 35°60' W 005°28'510.4
2017-Nov-07 10:30N 36°01' W 005°22'510.4
2017-Nov-07 10:00N 36°02' W 005°16'612.2
2017-Nov-07 09:30N 36°03' W 005°08'812.2
2017-Nov-07 08:51N 36°04' W 004°58'411.6
2017-Nov-07 08:30N 36°05' W 004°53'611.2
2017-Nov-07 08:01N 36°06' W 004°47'611.4
2017-Nov-07 07:30N 36°07' W 004°40'611.5
2017-Nov-07 07:00N 36°08' W 004°33'611.9
2017-Nov-07 06:30N 36°09' W 004°25'611.7
2017-Nov-07 06:00N 36°09' W 004°18'611.5
2017-Nov-07 05:30N 36°10' W 004°11'611.4
2017-Nov-07 04:59N 36°11' W 004°04'  
2017-Nov-04 20:38N 37°35' E 009°45'212.1
2017-Nov-04 20:29N 37°36' E 009°47'18812.5
2017-Nov-04 05:26N 36°42' E 013°34'812.9
2017-Nov-04 04:48N 36°39' E 013°44'712.6
2017-Nov-04 04:16N 36°37' E 013°51'312.6
2017-Nov-04 04:00N 36°36' E 013°55'612.5
2017-Nov-04 03:30N 36°34' E 014°03'612.5
2017-Nov-04 03:00N 36°32' E 014°10'612.4
2017-Nov-04 02:30N 36°30' E 014°17'612.3
2017-Nov-04 02:00N 36°28' E 014°25'612.6
2017-Nov-04 01:30N 36°27' E 014°32'712.9
2017-Nov-04 00:59N 36°27' E 014°41'45711.7
2017-Nov-02 09:51N 37°36' E 024°07'1113.2
2017-Nov-02 09:03N 37°44' E 024°16'113.3
2017-Nov-02 09:00N 37°44' E 024°17'713.0
2017-Nov-02 08:28N 37°49' E 024°23'  
Track history (hours):
 
Tides and Currents Weather Stations Pressure Air Temp Water Temp Dewpoint Dewpoint Depression Visibility Wind Speed Wind Dir Waves Ship Positions

Zeynep

Last reported at 2017-Nov-10 16:28 UTC. Time now 2017-Nov-20 06:21 UTC.
Position N 23°02' W 017°08'.
Warning: this ship's position is 9 days out of date.

Length 177 m; draft 10.1 m.

Type: Cargo ship. MMSI: 352854000.

Date/timePositionNaut miles runAvg speedWind from/ knotsBaromVisibWave heightAir tempDewpointWater temp
2017-Nov-10 16:28N 23°02' W 017°08'613.2
2017-Nov-10 15:59N 23°07' W 017°04'613.3
2017-Nov-10 15:30N 23°13' W 017°00'713.2
2017-Nov-10 14:56N 23°19' W 016°55'713.7
2017-Nov-10 14:26N 23°24' W 016°51'613.9
2017-Nov-10 14:01N 23°29' W 016°47'913.7
2017-Nov-10 13:21N 23°36' W 016°41'513.5
2017-Nov-10 13:00N 23°40' W 016°38'713.3
2017-Nov-10 12:30N 23°46' W 016°34'813.3
2017-Nov-10 11:55N 23°52' W 016°30'613.4
2017-Nov-10 11:30N 23°57' W 016°27'713.4
2017-Nov-10 11:00N 24°03' W 016°23'16813.1
2017-Nov-09 22:08N 26°26' W 014°44'4612.5
2017-Nov-09 18:25N 27°05' W 014°17'512.4
2017-Nov-09 18:00N 27°09' W 014°14'712.4
2017-Nov-09 17:29N 27°15' W 014°10'612.6
2017-Nov-09 17:01N 27°20' W 014°07'713.2
2017-Nov-09 16:30N 27°26' W 014°03'713.1
2017-Nov-09 16:00N 27°31' W 013°59'713.2
2017-Nov-09 15:31N 27°37' W 013°55'713.1
2017-Nov-09 15:00N 27°42' W 013°50'712.9
2017-Nov-09 14:30N 27°47' W 013°46'713.0
2017-Nov-09 14:00N 27°53' W 013°42'612.8
2017-Nov-09 13:30N 27°58' W 013°38'612.6
2017-Nov-09 13:00N 28°03' W 013°35'612.4
2017-Nov-09 12:31N 28°09' W 013°31'712.3
2017-Nov-09 11:58N 28°14' W 013°27'612.7
2017-Nov-09 11:30N 28°19' W 013°23'712.9
2017-Nov-09 10:57N 28°25' W 013°19'612.9
2017-Nov-09 10:28N 28°30' W 013°15'612.8
2017-Nov-09 10:00N 28°35' W 013°11'712.5
2017-Nov-09 09:28N 28°41' W 013°07'612.7
2017-Nov-09 08:58N 28°46' W 013°03'612.3
2017-Nov-09 08:30N 28°51' W 012°59'611.6
2017-Nov-09 08:00N 28°56' W 012°56'612.1
2017-Nov-09 07:30N 29°01' W 012°52'612.0
2017-Nov-09 07:00N 29°06' W 012°48'611.9
2017-Nov-09 06:30N 29°11' W 012°45'3111.9
2017-Nov-09 03:56N 29°36' W 012°25'3710.3
2017-Nov-09 00:20N 30°08' W 012°03'412.0
2017-Nov-09 00:00N 30°11' W 012°00'611.9
2017-Nov-08 23:30N 30°16' W 011°57'612.1
2017-Nov-08 22:59N 30°22' W 011°53'511.3
2017-Nov-08 22:30N 30°26' W 011°49'612.2
2017-Nov-08 22:00N 30°31' W 011°45'612.6
2017-Nov-08 21:31N 30°36' W 011°42'612.6
2017-Nov-08 21:00N 30°42' W 011°38'3412.9
2017-Nov-08 18:21N 31°11' W 011°16'34413.0
2017-Nov-07 15:59N 35°21' W 006°35'1113.7
2017-Nov-07 15:10N 35°30' W 006°26'613.6
2017-Nov-07 14:45N 35°34' W 006°21'414.1
2017-Nov-07 14:30N 35°36' W 006°18'714.7
2017-Nov-07 14:00N 35°42' W 006°12'815.0
2017-Nov-07 13:28N 35°47' W 006°05'714.9
2017-Nov-07 12:58N 35°52' W 005°58'613.7
2017-Nov-07 12:30N 35°56' W 005°52'714.9
2017-Nov-07 12:00N 35°58' W 005°43'613.0
2017-Nov-07 11:30N 35°58' W 005°35'611.4
2017-Nov-07 11:00N 35°60' W 005°28'510.4
2017-Nov-07 10:30N 36°01' W 005°22'510.4
2017-Nov-07 10:00N 36°02' W 005°16'612.2
2017-Nov-07 09:30N 36°03' W 005°08'812.2
2017-Nov-07 08:51N 36°04' W 004°58'411.6
2017-Nov-07 08:30N 36°05' W 004°53'611.2
2017-Nov-07 08:01N 36°06' W 004°47'611.4
2017-Nov-07 07:30N 36°07' W 004°40'611.5
2017-Nov-07 07:00N 36°08' W 004°33'611.9
2017-Nov-07 06:30N 36°09' W 004°25'611.7
2017-Nov-07 06:00N 36°09' W 004°18'611.5
2017-Nov-07 05:30N 36°10' W 004°11'611.4
2017-Nov-07 04:59N 36°11' W 004°04'  
2017-Nov-04 20:38N 37°35' E 009°45'212.1
2017-Nov-04 20:29N 37°36' E 009°47'18812.5
2017-Nov-04 05:26N 36°42' E 013°34'812.9
2017-Nov-04 04:48N 36°39' E 013°44'712.6
2017-Nov-04 04:16N 36°37' E 013°51'312.6
2017-Nov-04 04:00N 36°36' E 013°55'612.5
2017-Nov-04 03:30N 36°34' E 014°03'612.5
2017-Nov-04 03:00N 36°32' E 014°10'612.4
2017-Nov-04 02:30N 36°30' E 014°17'612.3
2017-Nov-04 02:00N 36°28' E 014°25'612.6
2017-Nov-04 01:30N 36°27' E 014°32'712.9
2017-Nov-04 00:59N 36°27' E 014°41'45711.7
2017-Nov-02 09:51N 37°36' E 024°07'1113.2
2017-Nov-02 09:03N 37°44' E 024°16'113.3
2017-Nov-02 09:00N 37°44' E 024°17'713.0
2017-Nov-02 08:28N 37°49' E 024°23'  

Dump ship's entire track history